createdAt,value
2016-08-14T00:00:15.486Z,99.99
2016-08-14T00:01:15.468Z,99.99
2016-08-14T00:02:15.481Z,99.99
2016-08-14T00:03:15.456Z,99.99
2016-08-14T00:04:15.468Z,99.99
2016-08-14T00:05:15.461Z,99.99
2016-08-14T00:06:15.480Z,99.99
2016-08-14T00:07:15.461Z,99.99
2016-08-14T00:08:15.445Z,99.99
2016-08-14T00:09:15.426Z,99.99
2016-08-14T00:10:15.434Z,99.99
2016-08-14T00:11:15.425Z,99.99
2016-08-14T00:12:15.407Z,99.99
2016-08-14T00:13:15.402Z,99.99
2016-08-14T00:14:15.426Z,99.99
2016-08-14T00:15:15.410Z,99.99
2016-08-14T00:16:15.395Z,99.99
2016-08-14T00:17:15.400Z,99.99
2016-08-14T00:18:15.392Z,99.99
2016-08-14T00:19:15.397Z,99.99
2016-08-14T00:20:15.370Z,99.99
2016-08-14T00:21:15.384Z,99.99
2016-08-14T00:22:15.365Z,99.99
2016-08-14T00:23:15.361Z,99.99
2016-08-14T00:24:15.364Z,99.99
2016-08-14T00:25:15.359Z,99.99
2016-08-14T00:26:15.356Z,99.99
2016-08-14T00:27:15.348Z,99.99
2016-08-14T00:28:15.352Z,99.99
2016-08-14T00:29:15.326Z,99.99
2016-08-14T00:30:15.337Z,99.99
2016-08-14T00:31:16.037Z,99.99
2016-08-14T00:32:15.332Z,99.99
2016-08-14T00:33:15.336Z,99.99
2016-08-14T00:34:15.390Z,99.99
2016-08-14T00:35:15.310Z,99.99
2016-08-14T00:36:15.316Z,99.99
2016-08-14T00:37:15.311Z,99.99
2016-08-14T00:38:15.304Z,99.99
2016-08-14T00:39:15.294Z,99.99
2016-08-14T00:40:15.382Z,99.99
2016-08-14T00:41:15.349Z,99.99
2016-08-14T00:42:15.255Z,99.99
2016-08-14T00:43:15.270Z,99.99
2016-08-14T00:44:16.010Z,99.99
2016-08-14T00:45:15.272Z,99.99
2016-08-14T00:46:15.255Z,99.99
2016-08-14T00:47:15.268Z,99.99
2016-08-14T00:48:15.243Z,99.99
2016-08-14T00:49:15.253Z,99.99
2016-08-14T00:50:15.249Z,99.99
2016-08-14T00:51:15.243Z,99.99
2016-08-14T00:52:15.230Z,99.99
2016-08-14T00:53:15.227Z,99.99
2016-08-14T00:54:15.371Z,99.99
2016-08-14T00:55:15.912Z,99.99
2016-08-14T00:56:15.212Z,99.99
2016-08-14T00:57:15.187Z,99.99
2016-08-14T00:58:15.190Z,99.99
2016-08-14T00:59:15.201Z,99.99
2016-08-14T01:00:15.197Z,99.99
2016-08-14T01:01:15.183Z,99.99
2016-08-14T01:02:15.174Z,99.99
2016-08-14T01:03:15.180Z,99.99
2016-08-14T01:04:15.166Z,99.99
2016-08-14T01:05:17.336Z,99.99
2016-08-14T01:06:15.150Z,99.99
2016-08-14T01:07:15.147Z,99.99
2016-08-14T01:08:15.136Z,99.99
2016-08-14T01:09:15.130Z,99.99
2016-08-14T01:10:15.131Z,99.99
2016-08-14T01:11:15.129Z,99.99
2016-08-14T01:12:15.118Z,99.99
2016-08-14T01:13:15.130Z,99.99
2016-08-14T01:14:15.115Z,99.99
2016-08-14T01:15:15.120Z,99.99
2016-08-14T01:16:15.100Z,99.99
2016-08-14T01:17:15.100Z,99.99
2016-08-14T01:18:15.091Z,99.99
2016-08-14T01:19:15.119Z,99.99
2016-08-14T01:20:15.084Z,99.99
2016-08-14T01:21:15.846Z,99.99
2016-08-14T01:22:15.074Z,99.99
2016-08-14T01:23:15.072Z,99.99
2016-08-14T01:24:15.078Z,99.99
2016-08-14T01:25:15.071Z,99.99
2016-08-14T01:26:15.067Z,99.99
2016-08-14T01:27:15.094Z,99.99
2016-08-14T01:28:15.051Z,99.99
2016-08-14T01:29:15.046Z,99.99
2016-08-14T01:30:15.037Z,99.99
2016-08-14T01:31:15.748Z,99.99
2016-08-14T01:32:15.013Z,99.99
2016-08-14T01:33:15.053Z,99.99
2016-08-14T01:34:15.023Z,99.99
2016-08-14T01:35:15.022Z,99.99
2016-08-14T01:36:14.998Z,99.99
2016-08-14T01:37:14.998Z,99.99
2016-08-14T01:38:15.023Z,99.99
2016-08-14T01:39:14.998Z,99.99
2016-08-14T01:40:14.993Z,99.99
2016-08-14T01:41:14.976Z,99.99
2016-08-14T01:42:15.006Z,99.99
2016-08-14T01:43:14.960Z,99.99
2016-08-14T01:44:14.968Z,99.99
2016-08-14T01:45:14.966Z,99.99
2016-08-14T01:46:14.957Z,99.99
2016-08-14T01:47:14.972Z,99.99
2016-08-14T01:48:14.946Z,99.99
2016-08-14T01:49:14.950Z,99.99
2016-08-14T01:50:14.992Z,99.99
2016-08-14T01:51:15.675Z,99.99
2016-08-14T01:52:14.945Z,99.99
2016-08-14T01:53:14.926Z,99.99
2016-08-14T01:54:14.915Z,99.99
2016-08-14T01:55:14.917Z,99.99
2016-08-14T01:56:14.971Z,99.99
2016-08-14T01:57:14.926Z,99.99
2016-08-14T01:58:14.965Z,99.99
2016-08-14T01:59:14.901Z,99.99
2016-08-14T02:00:14.958Z,99.99
2016-08-14T02:01:14.892Z,99.99
2016-08-14T02:02:14.890Z,99.99
2016-08-14T02:03:14.874Z,99.99
2016-08-14T02:04:14.879Z,99.99
2016-08-14T02:05:14.855Z,99.99
2016-08-14T02:06:15.192Z,99.99
2016-08-14T02:07:14.969Z,99.99
2016-08-14T02:08:14.869Z,99.99
2016-08-14T02:09:15.606Z,99.99
2016-08-14T02:10:14.842Z,99.99
2016-08-14T02:11:14.856Z,99.99
2016-08-14T02:12:14.837Z,99.99
2016-08-14T02:13:14.833Z,99.99
2016-08-14T02:14:14.821Z,99.99
2016-08-14T02:15:14.825Z,99.99
2016-08-14T02:16:14.813Z,99.99
2016-08-14T02:17:14.932Z,99.99
2016-08-14T02:18:14.801Z,99.99
2016-08-14T02:19:14.792Z,99.99
2016-08-14T02:20:14.805Z,99.99
2016-08-14T02:21:15.537Z,99.99
2016-08-14T02:22:14.813Z,99.99
2016-08-14T02:23:14.782Z,99.99
2016-08-14T02:24:14.779Z,99.99
2016-08-14T02:25:14.772Z,99.99
2016-08-14T02:26:14.824Z,99.99
2016-08-14T02:27:14.747Z,99.99
2016-08-14T02:28:14.739Z,99.99
2016-08-14T02:29:14.746Z,99.99
2016-08-14T02:30:14.740Z,99.99
2016-08-14T02:31:14.752Z,99.99
2016-08-14T02:32:14.739Z,99.99
2016-08-14T02:33:14.728Z,99.99
2016-08-14T02:34:14.716Z,99.99
2016-08-14T02:35:14.726Z,99.99
2016-08-14T02:36:14.709Z,99.99
2016-08-14T02:37:14.699Z,99.99
2016-08-14T02:38:14.695Z,99.99
2016-08-14T02:39:14.688Z,99.99
2016-08-14T02:40:14.729Z,99.99
2016-08-14T02:41:14.667Z,99.99
2016-08-14T02:42:14.683Z,99.99
2016-08-14T02:43:14.665Z,99.99
2016-08-14T02:44:14.659Z,99.99
2016-08-14T02:45:14.673Z,99.99
2016-08-14T02:46:14.659Z,99.99
2016-08-14T02:47:14.648Z,99.99
2016-08-14T02:48:14.633Z,99.99
2016-08-14T02:49:14.642Z,99.99
2016-08-14T02:50:15.364Z,99.99
2016-08-14T02:51:14.615Z,99.99
2016-08-14T02:52:14.615Z,99.99
2016-08-14T02:53:14.618Z,99.99
2016-08-14T02:54:14.612Z,99.99
2016-08-14T02:55:14.606Z,99.99
2016-08-14T02:56:14.595Z,99.99
2016-08-14T02:57:14.587Z,99.99
2016-08-14T02:58:14.596Z,99.99
2016-08-14T02:59:14.590Z,99.99
2016-08-14T03:00:14.567Z,99.99
2016-08-14T03:01:14.588Z,99.99
2016-08-14T03:02:14.570Z,99.99
2016-08-14T03:03:14.563Z,99.99
2016-08-14T03:04:14.558Z,99.99
2016-08-14T03:05:14.565Z,99.99
2016-08-14T03:06:14.565Z,99.99
2016-08-14T03:07:14.525Z,99.99
2016-08-14T03:08:14.537Z,99.99
2016-08-14T03:09:14.554Z,99.99
2016-08-14T03:10:14.523Z,99.99
2016-08-14T03:11:14.571Z,99.99
2016-08-14T03:12:14.516Z,99.99
2016-08-14T03:13:14.550Z,99.99
2016-08-14T03:14:14.492Z,99.99
2016-08-14T03:15:14.491Z,99.99
2016-08-14T03:16:14.488Z,99.99
2016-08-14T03:17:14.479Z,99.99
2016-08-14T03:18:14.471Z,99.99
2016-08-14T03:19:14.472Z,99.99
2016-08-14T03:20:14.483Z,99.99
2016-08-14T03:21:14.483Z,99.99
2016-08-14T03:22:14.433Z,99.99
2016-08-14T03:23:14.437Z,99.99
2016-08-14T03:24:14.428Z,99.99
2016-08-14T03:25:15.251Z,99.99
2016-08-14T03:26:14.452Z,99.99
2016-08-14T03:27:14.421Z,99.99
2016-08-14T03:28:14.405Z,99.99
2016-08-14T03:29:14.434Z,99.99
2016-08-14T03:30:14.393Z,99.99
2016-08-14T03:31:14.398Z,99.99
2016-08-14T03:32:14.371Z,99.99
2016-08-14T03:33:14.381Z,99.99
2016-08-14T03:34:14.370Z,99.99
2016-08-14T03:35:14.371Z,99.99
2016-08-14T03:36:14.375Z,99.99
2016-08-14T03:37:14.352Z,99.99
2016-08-14T03:38:14.349Z,99.99
2016-08-14T03:39:14.336Z,99.99
2016-08-14T03:40:14.367Z,99.99
2016-08-14T03:41:14.341Z,99.99
2016-08-14T03:42:14.337Z,99.99
2016-08-14T03:43:14.325Z,99.99
2016-08-14T03:44:14.331Z,99.99
2016-08-14T03:45:14.353Z,99.99
2016-08-14T03:46:14.298Z,99.99
2016-08-14T03:47:14.286Z,99.99
2016-08-14T03:48:15.017Z,99.99
2016-08-14T03:49:14.297Z,99.99
2016-08-14T03:50:14.285Z,99.99
2016-08-14T03:51:14.285Z,99.99
2016-08-14T03:52:14.264Z,99.99
2016-08-14T03:53:14.270Z,99.99
2016-08-14T03:54:14.243Z,99.99
2016-08-14T03:55:14.261Z,99.99
2016-08-14T03:56:14.249Z,99.99
2016-08-14T03:57:14.284Z,99.99
2016-08-14T03:58:14.260Z,99.99
2016-08-14T03:59:14.236Z,99.99
2016-08-14T04:00:14.208Z,99.99
2016-08-14T04:01:14.224Z,99.99
2016-08-14T04:02:14.213Z,99.99
2016-08-14T04:03:14.214Z,99.99
2016-08-14T04:04:14.193Z,99.99
2016-08-14T04:05:14.196Z,99.99
2016-08-14T04:06:14.181Z,99.99
2016-08-14T04:07:14.173Z,99.99
2016-08-14T04:08:14.175Z,99.99
2016-08-14T04:09:14.177Z,99.99
2016-08-14T04:10:14.158Z,99.99
2016-08-14T04:11:14.152Z,99.99
2016-08-14T04:12:14.152Z,99.99
2016-08-14T04:13:14.158Z,99.99
2016-08-14T04:14:14.145Z,99.99
2016-08-14T04:15:14.134Z,99.99
2016-08-14T04:16:14.131Z,99.99
2016-08-14T04:17:14.136Z,99.99
2016-08-14T04:18:14.130Z,99.99
2016-08-14T04:19:14.327Z,99.99
2016-08-14T04:20:14.106Z,99.99
2016-08-14T04:21:14.108Z,99.99
2016-08-14T04:22:14.100Z,99.99
2016-08-14T04:23:14.101Z,99.99
2016-08-14T04:24:14.065Z,99.99
2016-08-14T04:25:14.075Z,99.99
2016-08-14T04:26:14.076Z,99.99
2016-08-14T04:27:14.047Z,99.99
2016-08-14T04:28:14.093Z,99.99
2016-08-14T04:29:14.061Z,99.99
2016-08-14T04:30:14.058Z,99.99
2016-08-14T04:31:14.049Z,99.99
2016-08-14T04:32:14.790Z,99.99
2016-08-14T04:33:14.024Z,99.99
2016-08-14T04:34:14.013Z,99.99
2016-08-14T04:35:14.025Z,99.99
2016-08-14T04:36:14.010Z,99.99
2016-08-14T04:37:14.000Z,99.99
2016-08-14T04:38:13.998Z,99.99
2016-08-14T04:39:13.990Z,99.99
2016-08-14T04:40:13.995Z,99.99
2016-08-14T04:41:13.984Z,99.99
2016-08-14T04:42:13.954Z,99.99
2016-08-14T04:43:13.967Z,99.99
2016-08-14T04:44:13.962Z,99.99
2016-08-14T04:45:13.971Z,99.99
2016-08-14T04:46:13.945Z,99.99
2016-08-14T04:47:13.959Z,99.99
2016-08-14T04:48:13.981Z,99.99
2016-08-14T04:49:13.930Z,99.99
2016-08-14T04:50:13.909Z,99.99
2016-08-14T04:51:13.928Z,99.99
2016-08-14T04:52:13.924Z,99.99
2016-08-14T04:53:13.919Z,99.99
2016-08-14T04:54:13.891Z,99.99
2016-08-14T04:55:13.909Z,99.99
2016-08-14T04:56:13.899Z,99.99
2016-08-14T04:57:13.877Z,99.99
2016-08-14T04:58:13.883Z,99.99
2016-08-14T04:59:13.889Z,99.99
2016-08-14T05:00:13.872Z,99.99
2016-08-14T05:01:13.868Z,99.99
2016-08-14T05:02:13.858Z,99.99
2016-08-14T05:03:13.860Z,99.99
2016-08-14T05:04:13.853Z,99.99
2016-08-14T05:05:14.542Z,99.99
2016-08-14T05:06:13.820Z,99.99
2016-08-14T05:07:13.834Z,99.99
2016-08-14T05:08:13.826Z,99.99
2016-08-14T05:09:13.839Z,99.99
2016-08-14T05:10:13.821Z,99.99
2016-08-14T05:11:13.798Z,99.99
2016-08-14T05:12:13.802Z,99.99
2016-08-14T05:13:13.779Z,99.99
2016-08-14T05:14:13.781Z,99.99
2016-08-14T05:15:13.775Z,99.99
2016-08-14T05:16:13.779Z,99.99
2016-08-14T05:17:13.768Z,99.99
2016-08-14T05:18:13.767Z,99.99
2016-08-14T05:19:13.757Z,99.99
2016-08-14T05:20:13.749Z,99.99
2016-08-14T05:21:13.733Z,99.99
2016-08-14T05:22:13.746Z,99.99
2016-08-14T05:23:13.747Z,99.99
2016-08-14T05:24:13.727Z,99.99
2016-08-14T05:25:13.730Z,99.99
2016-08-14T05:26:13.723Z,99.99
2016-08-14T05:27:13.727Z,99.99
2016-08-14T05:28:13.711Z,99.99
2016-08-14T05:29:13.744Z,99.99
2016-08-14T05:30:13.696Z,99.99
2016-08-14T05:31:13.709Z,99.99
2016-08-14T05:32:13.985Z,99.99
2016-08-14T05:33:13.699Z,99.99
2016-08-14T05:34:13.675Z,99.99
2016-08-14T05:35:13.686Z,99.99
2016-08-14T05:36:13.705Z,99.99
2016-08-14T05:37:13.670Z,99.99
2016-08-14T05:38:13.657Z,99.99
2016-08-14T05:39:13.665Z,99.99
2016-08-14T05:40:13.662Z,99.99
2016-08-14T05:41:13.638Z,99.99
2016-08-14T05:42:13.629Z,99.99
2016-08-14T05:43:13.656Z,99.99
2016-08-14T05:44:13.617Z,99.99
2016-08-14T05:45:13.633Z,99.99
2016-08-14T05:46:13.609Z,99.99
2016-08-14T05:47:13.622Z,99.99
2016-08-14T05:48:13.621Z,99.99
2016-08-14T05:49:13.616Z,99.99
2016-08-14T05:50:13.656Z,99.99
2016-08-14T05:51:13.602Z,99.99
2016-08-14T05:52:13.652Z,99.99
2016-08-14T05:53:13.708Z,99.99
2016-08-14T05:54:13.610Z,99.99
2016-08-14T05:55:13.604Z,99.99
2016-08-14T05:56:13.674Z,99.99
2016-08-14T05:57:13.576Z,99.99
2016-08-14T05:58:13.621Z,99.99
2016-08-14T05:59:13.555Z,99.99
2016-08-14T06:00:13.545Z,99.99
2016-08-14T06:01:13.595Z,99.99
2016-08-14T06:02:13.553Z,99.99
2016-08-14T06:03:13.543Z,99.99
2016-08-14T06:04:13.542Z,99.99
2016-08-14T06:05:13.535Z,99.99
2016-08-14T06:06:13.544Z,99.99
2016-08-14T06:07:13.547Z,99.99
2016-08-14T06:08:13.624Z,99.99
2016-08-14T06:09:13.525Z,99.99
2016-08-14T06:10:13.534Z,99.99
2016-08-14T06:11:13.511Z,99.99
2016-08-14T06:12:13.512Z,99.99
2016-08-14T06:13:13.501Z,99.99
2016-08-14T06:14:13.506Z,99.99
2016-08-14T06:15:13.543Z,99.99
2016-08-14T06:16:13.579Z,99.99
2016-08-14T06:17:13.488Z,99.99
2016-08-14T06:18:13.628Z,99.99
2016-08-14T06:19:13.475Z,99.99
2016-08-14T06:20:13.493Z,99.99
2016-08-14T06:21:13.480Z,99.99
2016-08-14T06:22:13.476Z,99.99
2016-08-14T06:23:13.539Z,99.99
2016-08-14T06:24:13.661Z,99.99
2016-08-14T06:25:13.512Z,99.99
2016-08-14T06:26:13.452Z,99.99
2016-08-14T06:27:13.466Z,99.99
2016-08-14T06:28:13.463Z,99.38
2016-08-14T06:29:13.449Z,99.38
2016-08-14T06:30:13.453Z,99.58
2016-08-14T06:31:13.443Z,99.1
2016-08-14T06:32:13.444Z,99.58
2016-08-14T06:33:13.428Z,98.71
2016-08-14T06:34:13.442Z,98.71
2016-08-14T06:35:13.437Z,98.43
2016-08-14T06:36:13.421Z,98.14
2016-08-14T06:37:13.411Z,98.86
2016-08-14T06:38:13.425Z,98.57
2016-08-14T06:39:13.415Z,98.19
2016-08-14T06:40:13.408Z,97.61
2016-08-14T06:41:13.411Z,97.42
2016-08-14T06:42:13.413Z,97.14
2016-08-14T06:43:13.408Z,96.37
2016-08-14T06:44:13.400Z,96.08
2016-08-14T06:45:13.394Z,95.7
2016-08-14T06:46:13.460Z,95.51
2016-08-14T06:47:13.394Z,94.59
2016-08-14T06:48:13.385Z,94.5
2016-08-14T06:49:13.380Z,94.02
2016-08-14T06:50:13.389Z,92.97
2016-08-14T06:51:15.941Z,92.82
2016-08-14T06:52:17.039Z,92.72
2016-08-14T06:53:15.243Z,93.21
2016-08-14T06:54:29.168Z,92.68
2016-08-14T06:56:13.375Z,90.9
2016-08-14T06:57:13.362Z,89.65
2016-08-14T06:58:13.354Z,88.83
2016-08-14T06:59:13.348Z,87.87
2016-08-14T07:00:13.341Z,86.47
2016-08-14T07:01:13.513Z,85.13
2016-08-14T07:02:13.345Z,84.64
2016-08-14T07:03:13.361Z,83.49
2016-08-14T07:04:13.335Z,83.4
2016-08-14T07:05:13.335Z,81.67
2016-08-14T07:06:13.333Z,80.07
2016-08-14T07:07:13.340Z,79.92
2016-08-14T07:08:13.327Z,76.01
2016-08-14T07:09:13.331Z,74.03
2016-08-14T07:10:13.336Z,72.91
2016-08-14T07:11:13.335Z,72.81
2016-08-14T07:12:13.323Z,74.01
2016-08-14T07:13:13.477Z,69.51
2016-08-14T07:14:13.345Z,68.84
2016-08-14T07:15:13.343Z,66.27
2016-08-14T07:16:13.322Z,64.82
2016-08-14T07:17:13.359Z,64.47
2016-08-14T07:18:13.333Z,65.05
2016-08-14T07:19:13.331Z,64.11
2016-08-14T07:20:13.327Z,62.79
2016-08-14T07:21:13.346Z,62.63
2016-08-14T07:22:13.338Z,59.76
2016-08-14T07:23:13.329Z,58.21
2016-08-14T07:24:13.349Z,58.31
2016-08-14T07:25:13.335Z,58.67
2016-08-14T07:26:13.330Z,59.83
2016-08-14T07:27:13.342Z,58.57
2016-08-14T07:28:13.342Z,58.57
2016-08-14T07:29:13.340Z,58.67
2016-08-14T07:30:13.475Z,58.35
2016-08-14T07:31:13.336Z,58.67
2016-08-14T07:32:13.333Z,58.35
2016-08-14T07:33:13.333Z,58.25
2016-08-14T07:34:14.170Z,58.7
2016-08-14T07:35:13.353Z,58.8
2016-08-14T07:36:13.335Z,60.03
2016-08-14T07:37:13.352Z,62.6
2016-08-14T07:38:13.356Z,62.51
2016-08-14T07:39:13.354Z,61.83
2016-08-14T07:40:13.379Z,61.77
2016-08-14T07:41:13.350Z,63.98
2016-08-14T07:42:13.363Z,61.12
2016-08-14T07:43:13.363Z,61.41
2016-08-14T07:44:13.347Z,61.09
2016-08-14T07:45:13.373Z,60.06
2016-08-14T07:46:13.369Z,59.64
2016-08-14T07:47:13.356Z,60.13
2016-08-14T07:48:13.360Z,60.13
2016-08-14T07:49:13.358Z,61.06
2016-08-14T07:50:13.374Z,61.35
2016-08-14T07:51:13.361Z,61.25
2016-08-14T07:52:13.360Z,61.71
2016-08-14T07:53:13.365Z,64.34
2016-08-14T07:54:13.363Z,64.24
2016-08-14T07:55:14.075Z,63.28
2016-08-14T07:56:13.376Z,62.51
2016-08-14T07:57:13.368Z,63.09
2016-08-14T07:58:13.365Z,62.38
2016-08-14T07:59:13.367Z,61.8
2016-08-14T08:00:13.371Z,61.51
2016-08-14T08:01:13.393Z,61.99
2016-08-14T08:02:13.391Z,62.86
2016-08-14T08:03:13.388Z,62.35
2016-08-14T08:04:13.377Z,62.93
2016-08-14T08:05:13.367Z,63.12
2016-08-14T08:06:13.359Z,63.12
2016-08-14T08:07:13.373Z,65.24
2016-08-14T08:08:13.375Z,64.66
2016-08-14T08:09:13.374Z,64.18
2016-08-14T08:10:13.414Z,63.98
2016-08-14T08:11:13.442Z,63.5
2016-08-14T08:12:13.377Z,63.31
2016-08-14T08:13:13.386Z,64.28
2016-08-14T08:14:13.425Z,62.63
2016-08-14T08:15:13.370Z,64.37
2016-08-14T08:16:13.396Z,67.94
2016-08-14T08:17:13.399Z,65.63
2016-08-14T08:18:13.397Z,64.56
2016-08-14T08:19:13.384Z,64.18
2016-08-14T08:20:13.422Z,63.98
2016-08-14T08:21:13.377Z,64.02
2016-08-14T08:22:13.371Z,64.69
2016-08-14T08:23:13.389Z,66.04
2016-08-14T08:24:13.384Z,64.69
2016-08-14T08:25:13.375Z,63.18
2016-08-14T08:26:13.395Z,61.64
2016-08-14T08:27:13.388Z,66.75
2016-08-14T08:28:14.154Z,67.07
2016-08-14T08:29:13.381Z,66.97
2016-08-14T08:30:13.379Z,63.98
2016-08-14T08:31:13.381Z,61.6
2016-08-14T08:32:13.379Z,60.51
2016-08-14T08:33:13.378Z,60.16
2016-08-14T08:34:13.387Z,59.93
2016-08-14T08:35:13.387Z,59.55
2016-08-14T08:36:13.423Z,59.64
2016-08-14T08:37:13.379Z,59.93
2016-08-14T08:38:13.391Z,61.35
2016-08-14T08:39:13.393Z,62.73
2016-08-14T08:40:13.391Z,61.47
2016-08-14T08:41:13.392Z,60.31
2016-08-14T08:42:13.413Z,59.93
2016-08-14T08:43:13.410Z,60.03
2016-08-14T08:44:13.406Z,60.61
2016-08-14T08:45:13.402Z,59.93
2016-08-14T08:46:13.406Z,60.31
2016-08-14T08:47:13.383Z,59.93
2016-08-14T08:48:13.409Z,58.68
2016-08-14T08:49:13.412Z,58.48
2016-08-14T08:50:13.401Z,58.48
2016-08-14T08:51:13.404Z,58.29
2016-08-14T08:52:13.400Z,61.67
2016-08-14T08:53:13.408Z,60.73
2016-08-14T08:54:13.408Z,62.95
2016-08-14T08:55:13.418Z,59.77
2016-08-14T08:56:13.545Z,58.51
2016-08-14T08:57:13.426Z,58.61
2016-08-14T08:58:13.420Z,57.48
2016-08-14T08:59:13.401Z,56.77
2016-08-14T09:00:13.410Z,58.12
2016-08-14T09:01:13.423Z,59.55
2016-08-14T09:02:13.458Z,60.8
2016-08-14T09:03:13.415Z,60.19
2016-08-14T09:04:13.417Z,59.9
2016-08-14T09:05:13.433Z,59.32
2016-08-14T09:06:13.442Z,60.45
2016-08-14T09:07:13.432Z,59.78
2016-08-14T09:08:13.432Z,58.91
2016-08-14T09:09:13.439Z,58.91
2016-08-14T09:10:13.464Z,60.1
2016-08-14T09:11:13.438Z,61.44
2016-08-14T09:12:13.431Z,60
2016-08-14T09:13:13.437Z,58.97
2016-08-14T09:14:13.498Z,60.99
2016-08-14T09:15:13.423Z,61.47
2016-08-14T09:16:13.434Z,60.61
2016-08-14T09:17:13.428Z,59.52
2016-08-14T09:18:13.434Z,59.71
2016-08-14T09:19:13.441Z,59.13
2016-08-14T09:20:13.439Z,58.75
2016-08-14T09:21:13.441Z,59.13
2016-08-14T09:22:14.196Z,61.25
2016-08-14T09:23:13.439Z,61.16
2016-08-14T09:24:13.444Z,60.86
2016-08-14T09:25:13.439Z,60.03
2016-08-14T09:26:13.461Z,57.9
2016-08-14T09:27:13.453Z,57.14
2016-08-14T09:28:13.454Z,57.04
2016-08-14T09:29:13.451Z,57.04
2016-08-14T09:30:13.431Z,60.22
2016-08-14T09:31:13.472Z,58.58
2016-08-14T09:32:13.454Z,57.16
2016-08-14T09:33:13.599Z,55.52
2016-08-14T09:34:13.451Z,56
2016-08-14T09:35:13.468Z,58.32
2016-08-14T09:36:13.455Z,59.58
2016-08-14T09:37:13.448Z,58.7
2016-08-14T09:38:13.454Z,56.99
2016-08-14T09:39:13.513Z,56.48
2016-08-14T09:40:13.457Z,55.52
2016-08-14T09:41:13.447Z,55.52
2016-08-14T09:42:13.446Z,55.59
2016-08-14T09:43:13.456Z,55.68
2016-08-14T09:44:13.479Z,55.4
2016-08-14T09:45:13.501Z,56.07
2016-08-14T09:46:13.473Z,56.07
2016-08-14T09:47:13.455Z,56.94
2016-08-14T09:48:13.482Z,57.04
2016-08-14T09:49:13.454Z,57.04
2016-08-14T09:50:13.461Z,57.2
2016-08-14T09:51:13.667Z,57.2
2016-08-14T09:52:13.468Z,57.62
2016-08-14T09:53:13.476Z,55.4
2016-08-14T09:54:13.482Z,53.75
2016-08-14T09:55:13.463Z,54.17
2016-08-14T09:56:13.566Z,55.33
2016-08-14T09:57:13.477Z,55.3
2016-08-14T09:58:13.481Z,54.62
2016-08-14T09:59:13.607Z,54.72
2016-08-14T10:00:13.493Z,54.72
2016-08-14T10:01:13.492Z,55.4
2016-08-14T10:02:13.544Z,56.16
2016-08-14T10:03:13.494Z,55.52
2016-08-14T10:04:13.486Z,54.94
2016-08-14T10:05:13.485Z,53.69
2016-08-14T10:06:13.509Z,53.59
2016-08-14T10:07:13.499Z,54.49
2016-08-14T10:08:13.493Z,53.42
2016-08-14T10:09:13.515Z,53.42
2016-08-14T10:10:13.509Z,55.55
2016-08-14T10:11:13.505Z,54.8
2016-08-14T10:12:13.492Z,58.18
2016-08-14T10:13:13.501Z,58.76
2016-08-14T10:14:13.507Z,54.71
2016-08-14T10:15:13.504Z,54.03
2016-08-14T10:16:13.522Z,54.03
2016-08-14T10:17:13.516Z,53.64
2016-08-14T10:18:13.519Z,52.58
2016-08-14T10:19:13.513Z,52.77
2016-08-14T10:20:13.636Z,51.9
2016-08-14T10:21:13.523Z,55.77
2016-08-14T10:22:13.511Z,56.45
2016-08-14T10:23:13.538Z,58.7
2016-08-14T10:24:13.522Z,62.18
2016-08-14T10:25:13.526Z,60.05
2016-08-14T10:26:14.240Z,57.05
2016-08-14T10:27:13.642Z,55.6
2016-08-14T10:28:14.275Z,53.57
2016-08-14T10:29:13.532Z,52.41
2016-08-14T10:30:13.526Z,52.58
2016-08-14T10:31:13.528Z,52
2016-08-14T10:32:13.535Z,52.26
2016-08-14T10:33:13.548Z,53.61
2016-08-14T10:34:13.538Z,53.69
2016-08-14T10:35:13.555Z,53.49
2016-08-14T10:36:13.558Z,54.36
2016-08-14T10:37:13.556Z,55.13
2016-08-14T10:38:13.561Z,53.69
2016-08-14T10:39:13.549Z,53.71
2016-08-14T10:40:13.548Z,53.61
2016-08-14T10:41:13.567Z,53.52
2016-08-14T10:42:13.567Z,51.87
2016-08-14T10:43:13.565Z,51.42
2016-08-14T10:44:13.576Z,51.29
2016-08-14T10:45:13.567Z,51.29
2016-08-14T10:46:13.577Z,51.78
2016-08-14T10:47:13.572Z,51.59
2016-08-14T10:48:13.594Z,51.59
2016-08-14T10:49:13.570Z,51.37
2016-08-14T10:50:13.590Z,51.85
2016-08-14T10:51:13.583Z,52.43
2016-08-14T10:52:13.570Z,53.78
2016-08-14T10:53:13.588Z,53.78
2016-08-14T10:54:13.586Z,55.62
2016-08-14T10:55:13.578Z,54.55
2016-08-14T10:56:13.574Z,54.65
2016-08-14T10:57:13.583Z,56.32
2016-08-14T10:58:13.597Z,56.61
2016-08-14T10:59:13.600Z,56.22
2016-08-14T11:00:13.605Z,56.41
2016-08-14T11:01:13.588Z,56.41
2016-08-14T11:02:13.605Z,55.83
2016-08-14T11:03:13.609Z,55.55
2016-08-14T11:04:13.656Z,55.16
2016-08-14T11:05:13.597Z,54.68
2016-08-14T11:06:13.644Z,55.35
2016-08-14T11:07:13.609Z,54.65
2016-08-14T11:08:13.620Z,57.06
2016-08-14T11:09:14.311Z,55.35
2016-08-14T11:10:13.612Z,54.29
2016-08-14T11:11:13.624Z,54.19
2016-08-14T11:12:13.616Z,57.19
2016-08-14T11:13:13.613Z,55.47
2016-08-14T11:14:13.670Z,53.83
2016-08-14T11:15:13.622Z,52
2016-08-14T11:16:13.623Z,51.83
2016-08-14T11:17:13.617Z,50.96
2016-08-14T11:18:13.639Z,51.54
2016-08-14T11:19:13.627Z,54.44
2016-08-14T11:20:13.639Z,52.7
2016-08-14T11:21:13.629Z,51.66
2016-08-14T11:22:13.639Z,50.98
2016-08-14T11:23:13.659Z,49.9
2016-08-14T11:24:13.652Z,49.7
2016-08-14T11:25:13.651Z,50.38
2016-08-14T11:26:13.687Z,50.38
2016-08-14T11:27:13.672Z,50.07
2016-08-14T11:28:13.663Z,50.45
2016-08-14T11:29:13.667Z,50.74
2016-08-14T11:30:13.685Z,50.55
2016-08-14T11:31:13.696Z,50.16
2016-08-14T11:32:13.662Z,50.62
2016-08-14T11:33:13.654Z,51.29
2016-08-14T11:34:13.665Z,51.59
2016-08-14T11:35:13.671Z,51.13
2016-08-14T11:36:13.700Z,51.61
2016-08-14T11:37:13.696Z,52.77
2016-08-14T11:38:13.698Z,52.58
2016-08-14T11:39:13.675Z,52.19
2016-08-14T11:40:13.699Z,50.18
2016-08-14T11:41:13.678Z,50.57
2016-08-14T11:42:13.725Z,50.57
2016-08-14T11:43:13.678Z,48.74
2016-08-14T11:44:13.688Z,48.54
2016-08-14T11:45:13.690Z,46.9
2016-08-14T11:46:13.700Z,46.7
2016-08-14T11:47:13.706Z,47
2016-08-14T11:48:13.711Z,47
2016-08-14T11:49:13.727Z,47.86
2016-08-14T11:50:14.457Z,47.84
2016-08-14T11:51:13.718Z,48.81
2016-08-14T11:52:13.720Z,48.79
2016-08-14T11:53:13.725Z,49.37
2016-08-14T11:54:13.729Z,49.55
2016-08-14T11:55:13.726Z,49.65
2016-08-14T11:56:13.720Z,49.95
2016-08-14T11:57:13.725Z,52.84
2016-08-14T11:58:13.724Z,51.49
2016-08-14T11:59:13.737Z,49.65
2016-08-14T12:00:13.734Z,49.73
2016-08-14T12:01:13.733Z,49.92
2016-08-14T12:02:13.741Z,50.11
2016-08-14T12:03:13.732Z,50.69
2016-08-14T12:04:13.725Z,51.17
2016-08-14T12:05:13.741Z,50.79
2016-08-14T12:06:13.739Z,50.11
2016-08-14T12:07:13.738Z,50.21
2016-08-14T12:08:13.738Z,51.59
2016-08-14T12:09:13.788Z,51.68
2016-08-14T12:10:13.759Z,52.75
2016-08-14T12:11:13.786Z,50.71
2016-08-14T12:12:14.496Z,50.91
2016-08-14T12:13:14.189Z,51.49
2016-08-14T12:14:13.810Z,52.55
2016-08-14T12:15:13.745Z,52.26
2016-08-14T12:16:13.749Z,52.58
2016-08-14T12:17:13.759Z,51.32
2016-08-14T12:18:13.768Z,52.29
2016-08-14T12:19:13.762Z,51.61
2016-08-14T12:20:13.756Z,50.55
2016-08-14T12:21:13.774Z,49.87
2016-08-14T12:22:13.764Z,48.81
2016-08-14T12:23:13.781Z,48.64
2016-08-14T12:24:13.805Z,48.81
2016-08-14T12:25:13.780Z,49.58
2016-08-14T12:26:13.785Z,51.71
2016-08-14T12:27:13.788Z,52.12
2016-08-14T12:28:13.786Z,51.51
2016-08-14T12:29:13.780Z,51.51
2016-08-14T12:30:13.788Z,50.65
2016-08-14T12:31:13.805Z,51.68
2016-08-14T12:34:13.808Z,53.23
2016-08-14T12:35:13.838Z,53.71
2016-08-14T12:36:13.808Z,54.75
2016-08-14T12:37:13.802Z,55.33
2016-08-14T12:38:13.800Z,56
2016-08-14T12:39:13.829Z,56.2
2016-08-14T12:40:13.825Z,56.48
2016-08-14T12:41:13.819Z,56.48
2016-08-14T12:42:13.818Z,57.26
2016-08-14T12:43:13.827Z,57.52
2016-08-14T12:44:13.823Z,62.86
2016-08-14T12:45:13.842Z,61.02
2016-08-14T12:46:13.841Z,57.54
2016-08-14T12:47:13.826Z,57.26
2016-08-14T12:48:13.845Z,56.87
2016-08-14T12:49:13.838Z,57.84
2016-08-14T12:50:13.847Z,57.54
2016-08-14T12:51:13.838Z,57.16
2016-08-14T12:52:13.834Z,56.1
2016-08-14T12:53:13.856Z,55.2
2016-08-14T12:54:13.868Z,54.33
2016-08-14T12:55:13.849Z,54.33
2016-08-14T12:56:13.863Z,53.75
2016-08-14T12:57:13.846Z,53.75